createdAt,value
2023-02-02T00:00:13.626Z,0.18
2023-02-02T00:02:44.397Z,0.18
2023-02-02T00:05:15.081Z,0.18
2023-02-02T00:07:45.831Z,0.18
2023-02-02T00:10:16.281Z,0.18
2023-02-02T00:12:47.013Z,0.18
2023-02-02T00:15:17.726Z,0.18
2023-02-02T00:17:48.504Z,0.17
2023-02-02T00:20:18.914Z,0.18
2023-02-02T00:22:49.663Z,0.18
2023-02-02T00:25:20.093Z,0.17
2023-02-02T00:27:50.792Z,0.17
2023-02-02T00:30:21.509Z,0.17
2023-02-02T00:32:52.249Z,0.18
2023-02-02T00:35:23.249Z,0.18
2023-02-02T00:37:53.705Z,0.17
2023-02-02T00:40:24.492Z,0.17
2023-02-02T00:42:55.187Z,0.17
2023-02-02T00:45:26.398Z,0.17
2023-02-02T00:47:56.618Z,0.17
2023-02-02T00:50:27.319Z,0.17
2023-02-02T00:52:58.074Z,0.17
2023-02-02T00:55:28.754Z,0.17
2023-02-02T00:57:59.473Z,0.16
2023-02-02T01:00:30.184Z,0.16
2023-02-02T01:03:00.921Z,0.16
2023-02-02T01:05:31.363Z,0.17
2023-02-02T01:08:02.095Z,0.17
2023-02-02T01:10:32.820Z,0.17
2023-02-02T01:13:03.544Z,0.17
2023-02-02T01:15:34.268Z,0.17
2023-02-02T01:18:05.036Z,0.17
2023-02-02T01:20:35.539Z,0.17
2023-02-02T01:23:06.205Z,0.17
2023-02-02T01:25:36.934Z,0.17
2023-02-02T01:28:07.852Z,0.16
2023-02-02T01:30:38.106Z,0.16
2023-02-02T01:33:08.802Z,0.16
2023-02-02T01:35:39.252Z,0.16
2023-02-02T01:38:10.145Z,0.17
2023-02-02T01:40:40.745Z,0.16
2023-02-02T01:43:11.458Z,0.16
2023-02-02T01:45:42.222Z,0.16
2023-02-02T01:48:12.645Z,0.16
2023-02-02T01:50:43.321Z,0.16
2023-02-02T01:53:14.075Z,0.16
2023-02-02T01:55:44.777Z,0.16
2023-02-02T01:58:15.498Z,0.17
2023-02-02T02:00:47.156Z,0.15
2023-02-02T02:03:16.939Z,0.14
2023-02-02T02:05:47.684Z,0.14
2023-02-02T02:08:18.444Z,0.14
2023-02-02T02:10:49.071Z,0.14
2023-02-02T02:13:19.796Z,0.14
2023-02-02T02:15:50.482Z,0.14
2023-02-02T02:18:21.215Z,0.14
2023-02-02T02:20:51.909Z,0.15
2023-02-02T02:23:22.626Z,0.13
2023-02-02T02:25:52.711Z,0.13
2023-02-02T02:28:23.421Z,0.14
2023-02-02T02:30:54.303Z,0.14
2023-02-02T02:33:24.841Z,0.14
2023-02-02T02:35:55.717Z,0.14
2023-02-02T02:38:25.624Z,0.13
2023-02-02T02:40:56.341Z,0.14
2023-02-02T02:43:27.054Z,0.14
2023-02-02T02:45:57.897Z,0.14
2023-02-02T02:48:28.464Z,0.13
2023-02-02T02:50:59.205Z,0.14
2023-02-02T02:53:30.031Z,0.13
2023-02-02T02:56:00.608Z,0.13
2023-02-02T02:58:31.329Z,0.13
2023-02-02T03:01:02.005Z,0.13
2023-02-02T03:03:32.724Z,0.14
2023-02-02T03:06:03.419Z,0.13
2023-02-02T03:08:34.227Z,0.13
2023-02-02T03:11:04.945Z,0.13
2023-02-02T03:13:35.272Z,0.13
2023-02-02T03:16:06.017Z,0.13
2023-02-02T03:18:36.679Z,0.13
2023-02-02T03:21:07.469Z,0.13
2023-02-02T03:23:38.087Z,0.12
2023-02-02T03:26:08.795Z,0.13
2023-02-02T03:28:39.263Z,0.12
2023-02-02T03:31:10.080Z,0.13
2023-02-02T03:33:40.719Z,0.12
2023-02-02T03:36:11.056Z,0.12
2023-02-02T03:38:41.893Z,0.12
2023-02-02T03:41:12.471Z,0.12
2023-02-02T03:43:43.264Z,0.12
2023-02-02T03:46:13.913Z,0.12
2023-02-02T03:48:44.742Z,0.12
2023-02-02T03:51:15.013Z,0.12
2023-02-02T03:53:45.739Z,0.12
2023-02-02T03:56:16.432Z,0.14
2023-02-02T03:58:47.161Z,0.15
2023-02-02T04:01:18.037Z,0.15
2023-02-02T04:03:48.609Z,0.16
2023-02-02T04:06:19.379Z,0.15
2023-02-02T04:08:50.109Z,0.15
2023-02-02T04:11:20.743Z,0.14
2023-02-02T04:13:51.459Z,0.15
2023-02-02T04:16:22.237Z,0.15
2023-02-02T04:18:53.038Z,0.14
2023-02-02T04:21:23.574Z,0.14
2023-02-02T04:23:54.423Z,0.14
2023-02-02T04:26:25.232Z,0.14
2023-02-02T04:28:55.747Z,0.13
2023-02-02T04:31:26.541Z,0.14
2023-02-02T04:33:57.271Z,0.14
2023-02-02T04:36:27.986Z,0.14
2023-02-02T04:38:58.611Z,0.15
2023-02-02T04:41:29.286Z,0.15
2023-02-02T04:44:00.031Z,0.16
2023-02-02T04:46:30.697Z,0.15
2023-02-02T04:49:01.479Z,0.15
2023-02-02T04:51:32.160Z,0.15
2023-02-02T04:54:02.887Z,0.17
2023-02-02T04:56:33.578Z,0.16
2023-02-02T04:59:04.327Z,0.18
2023-02-02T05:01:34.996Z,0.17
2023-02-02T05:04:05.829Z,0.17
2023-02-02T05:06:36.447Z,0.17
2023-02-02T05:09:07.234Z,0.17
2023-02-02T05:11:37.921Z,0.18
2023-02-02T05:14:08.666Z,0.19
2023-02-02T05:16:39.442Z,0.18
2023-02-02T05:19:10.153Z,0.18
2023-02-02T05:21:40.886Z,0.19
2023-02-02T05:24:11.624Z,0.18
2023-02-02T05:26:42.493Z,0.19
2023-02-02T05:29:13.097Z,0.19
2023-02-02T05:31:43.832Z,0.18
2023-02-02T05:34:14.561Z,0.2
2023-02-02T05:36:45.289Z,0.2
2023-02-02T05:39:16.017Z,0.19
2023-02-02T05:41:46.900Z,0.19
2023-02-02T05:44:17.520Z,0.19
2023-02-02T05:46:48.229Z,0.2
2023-02-02T05:49:19.009Z,0.2
2023-02-02T05:51:49.817Z,0.2
2023-02-02T05:54:20.672Z,0.2
2023-02-02T05:56:51.253Z,0.19
2023-02-02T05:59:22.000Z,0.2
2023-02-02T06:01:52.746Z,0.19
2023-02-02T06:04:23.507Z,0.19
2023-02-02T06:06:54.241Z,0.19
2023-02-02T06:09:25.069Z,0.19
2023-02-02T06:11:55.765Z,0.18
2023-02-02T06:14:26.502Z,0.16
2023-02-02T06:16:57.228Z,0.18
2023-02-02T06:19:27.996Z,0.18
2023-02-02T06:21:58.833Z,0.16
2023-02-02T06:24:29.460Z,0.17
2023-02-02T06:27:00.216Z,0.17
2023-02-02T06:29:30.973Z,0.16
2023-02-02T06:32:01.691Z,0.15
2023-02-02T06:34:32.410Z,0.16
2023-02-02T06:37:03.217Z,0.16
2023-02-02T06:39:33.877Z,0.16
2023-02-02T06:42:20.069Z,0.15
2023-02-02T06:44:35.331Z,0.14
2023-02-02T06:47:06.038Z,0.15
2023-02-02T06:49:36.778Z,0.14
2023-02-02T06:52:07.501Z,0.12
2023-02-02T06:54:38.272Z,0.12
2023-02-02T06:57:08.935Z,0.11
2023-02-02T06:59:39.687Z,0.13
2023-02-02T07:02:10.450Z,0.12
2023-02-02T07:04:41.111Z,0.11
2023-02-02T07:07:11.691Z,0.07
2023-02-02T07:09:42.467Z,0.08
2023-02-02T07:12:13.219Z,0.1
2023-02-02T07:14:43.959Z,0.11
2023-02-02T07:17:14.669Z,0.11
2023-02-02T07:19:45.413Z,0.09
2023-02-02T07:22:16.181Z,0.11
2023-02-02T07:24:46.893Z,0.09
2023-02-02T07:27:17.592Z,0.09
2023-02-02T07:29:48.329Z,0.13
2023-02-02T07:32:19.042Z,0.14
2023-02-02T07:34:49.803Z,0.12
2023-02-02T07:37:20.615Z,0.12
2023-02-02T07:39:51.287Z,0.12
2023-02-02T07:42:22.022Z,0.12
2023-02-02T07:44:52.757Z,0.13
2023-02-02T07:47:23.580Z,0.13
2023-02-02T07:49:54.219Z,0.12
2023-02-02T07:52:24.927Z,0.13
2023-02-02T07:55:05.313Z,0.13
2023-02-02T07:57:26.396Z,0.13
2023-02-02T07:59:57.130Z,0.13
2023-02-02T08:02:27.946Z,0.12
2023-02-02T08:04:58.603Z,0.11
2023-02-02T08:07:29.305Z,0.12
2023-02-02T08:10:00.103Z,0.12
2023-02-02T08:12:30.808Z,0.13
2023-02-02T08:15:01.573Z,0.12
2023-02-02T08:17:32.269Z,0.11
2023-02-02T08:20:03.019Z,0.12
2023-02-02T08:22:33.719Z,0.11
2023-02-02T08:25:04.470Z,0.12
2023-02-02T08:27:37.579Z,0.11
2023-02-02T08:30:05.949Z,0.12
2023-02-02T08:32:36.687Z,0.11
2023-02-02T08:35:07.428Z,0.1
2023-02-02T08:37:38.154Z,0.1
2023-02-02T08:40:09.095Z,0.12
2023-02-02T08:42:39.764Z,0.12
2023-02-02T08:46:02.463Z,0.11
2023-02-02T08:47:41.085Z,0.1
2023-02-02T08:50:11.838Z,0.12
2023-02-02T08:52:42.530Z,0.11
2023-02-02T08:55:13.285Z,0.11
2023-02-02T08:57:44.057Z,0.12
2023-02-02T09:00:15.215Z,0.1
2023-02-02T09:02:45.549Z,0.13
2023-02-02T09:05:16.255Z,0.11
2023-02-02T09:07:47.480Z,0.11
2023-02-02T09:10:17.659Z,0.12
2023-02-02T09:12:48.367Z,0.11
2023-02-02T09:15:19.185Z,0.11
2023-02-02T09:17:49.737Z,0.09
2023-02-02T09:20:20.756Z,0.1
2023-02-02T09:22:51.190Z,0.11
2023-02-02T09:25:21.985Z,0.12
2023-02-02T09:27:52.585Z,0.11
2023-02-02T09:30:23.794Z,0.1
2023-02-02T09:35:24.913Z,0.12
2023-02-02T09:37:55.632Z,0.11
2023-02-02T09:40:27.402Z,0.1
2023-02-02T09:42:56.759Z,0.12
2023-02-02T09:45:27.799Z,0.12
2023-02-02T09:47:58.389Z,0.11
2023-02-02T09:50:28.780Z,0.12
2023-02-02T09:53:00.183Z,0.11
2023-02-02T09:58:00.861Z,0.11
2023-02-02T10:00:31.398Z,0.11
2023-02-02T10:03:04.175Z,0.11
2023-02-02T10:05:33.306Z,0.1
2023-02-02T10:08:03.355Z,0.09
2023-02-02T10:10:34.514Z,0.11
2023-02-02T10:13:04.675Z,0.11
2023-02-02T10:15:36.746Z,0.12
2023-02-02T10:18:06.351Z,0.12
2023-02-02T10:20:36.618Z,0.11
2023-02-02T10:23:07.341Z,0.12
2023-02-02T10:25:38.122Z,0.12
2023-02-02T10:28:08.692Z,0.12
2023-02-02T10:30:39.381Z,0.12
2023-02-02T10:33:10.018Z,0.11
2023-02-02T10:35:40.740Z,0.1
2023-02-02T10:38:11.376Z,0.1
2023-02-02T10:40:42.047Z,0.11
2023-02-02T10:43:12.738Z,0.08
2023-02-02T10:45:43.400Z,0.1
2023-02-02T10:48:14.104Z,0.08
2023-02-02T10:50:44.728Z,0.09
2023-02-02T10:53:15.471Z,0.09
2023-02-02T10:55:46.054Z,0.09
2023-02-02T10:58:16.745Z,0.09
2023-02-02T11:00:47.389Z,0.09
2023-02-02T11:03:18.059Z,0.1
2023-02-02T11:05:48.733Z,0.11
2023-02-02T11:08:19.414Z,0.11
2023-02-02T11:10:50.088Z,0.07
2023-02-02T11:13:20.777Z,0.11
2023-02-02T11:15:51.432Z,0.12
2023-02-02T11:18:22.081Z,0.12
2023-02-02T11:20:52.741Z,0.1
2023-02-02T11:23:23.414Z,0.1
2023-02-02T11:25:54.076Z,0.09
2023-02-02T11:28:24.783Z,0.1
2023-02-02T11:30:55.529Z,0.12
2023-02-02T11:33:26.067Z,0.12
2023-02-02T11:35:56.726Z,0.12
2023-02-02T11:38:27.533Z,0.12
2023-02-02T11:40:58.087Z,0.09
2023-02-02T11:43:28.761Z,0.09
2023-02-02T11:46:02.582Z,0.09
2023-02-02T11:48:30.081Z,0.1
2023-02-02T11:51:00.831Z,0.12
2023-02-02T11:53:31.435Z,0.11
2023-02-02T11:56:02.060Z,0.09
2023-02-02T11:58:32.749Z,0.1
2023-02-02T12:01:03.372Z,0.09
2023-02-02T12:03:34.104Z,0.1
2023-02-02T12:06:04.677Z,0.09
2023-02-02T12:08:35.348Z,0.1
2023-02-02T12:11:06.089Z,0.1
2023-02-02T12:13:36.654Z,0.1
2023-02-02T12:16:09.043Z,0.09
2023-02-02T12:18:37.979Z,0.09
2023-02-02T12:21:08.556Z,0.08
2023-02-02T12:23:39.226Z,0.12
2023-02-02T12:26:09.854Z,0.13
2023-02-02T12:28:40.528Z,0.12
2023-02-02T12:31:11.304Z,0.1
2023-02-02T12:33:41.846Z,0.09
2023-02-02T12:36:12.497Z,0.08
2023-02-02T12:38:43.170Z,0.09
2023-02-02T12:41:13.881Z,0.1
2023-02-02T12:43:44.484Z,0.11
2023-02-02T12:46:15.176Z,0.11
2023-02-02T12:48:45.812Z,0.11
2023-02-02T12:51:16.426Z,0.09
2023-02-02T12:53:47.097Z,0.1
2023-02-02T12:56:18.012Z,0.1
2023-02-02T12:58:48.383Z,0.09
2023-02-02T13:01:19.068Z,0.09
2023-02-02T13:03:49.396Z,0.09
2023-02-02T13:06:20.016Z,0.09
2023-02-02T13:08:50.710Z,0.09
2023-02-02T13:11:20.793Z,0.08
2023-02-02T13:13:51.469Z,0.1
2023-02-02T13:16:22.129Z,0.1
2023-02-02T13:18:52.751Z,0.08
2023-02-02T13:21:23.380Z,0.09
2023-02-02T13:23:54.272Z,0.1
2023-02-02T13:26:24.818Z,0.08
2023-02-02T13:28:55.149Z,0.07
2023-02-02T13:31:25.932Z,0.09
2023-02-02T13:33:56.409Z,0.07
2023-02-02T13:36:27.040Z,0.08
2023-02-02T13:38:57.752Z,0.09
2023-02-02T13:41:28.376Z,0.09
2023-02-02T13:43:59.159Z,0.09
2023-02-02T13:46:29.781Z,0.09
2023-02-02T13:49:00.456Z,0.08
2023-02-02T13:51:31.005Z,0.09
2023-02-02T13:54:01.690Z,0.08
2023-02-02T13:56:32.322Z,0.07
2023-02-02T13:59:03.039Z,0.08
2023-02-02T14:01:33.677Z,0.09
2023-02-02T14:04:04.308Z,0.07
2023-02-02T14:06:35.041Z,0.09
2023-02-02T14:09:05.699Z,0.08
2023-02-02T14:11:36.233Z,0.1
2023-02-02T14:14:06.904Z,0.09
2023-02-02T14:16:37.522Z,0.07
2023-02-02T14:19:08.187Z,0.07
2023-02-02T14:21:38.933Z,0.08
2023-02-02T14:24:09.501Z,0.07
2023-02-02T14:26:40.272Z,0.08
2023-02-02T14:29:10.539Z,0.1
2023-02-02T14:31:40.949Z,0.09
2023-02-02T14:34:11.465Z,0.1
2023-02-02T14:36:42.140Z,0.1
2023-02-02T14:39:12.845Z,0.12
2023-02-02T14:41:43.420Z,0.12
2023-02-02T14:44:14.105Z,0.12
2023-02-02T14:46:44.817Z,0.1
2023-02-02T14:49:15.457Z,0.1
2023-02-02T14:51:46.259Z,0.11
2023-02-02T14:54:16.825Z,0.09
2023-02-02T14:56:47.273Z,0.09
2023-02-02T14:59:17.935Z,0.09
2023-02-02T15:01:48.503Z,0.09
2023-02-02T15:04:19.009Z,0.08
2023-02-02T15:06:49.339Z,0.08
2023-02-02T15:09:20.067Z,0.09
2023-02-02T15:11:50.725Z,0.08
2023-02-02T15:14:21.195Z,0.08
2023-02-02T15:16:51.914Z,0.07
2023-02-02T15:19:22.517Z,0.06
2023-02-02T15:21:52.983Z,0.08
2023-02-02T15:24:23.642Z,0.07
2023-02-02T15:26:54.416Z,0.06
2023-02-02T15:29:25.090Z,0.05
2023-02-02T15:31:55.800Z,0.06
2023-02-02T15:34:26.370Z,0.04
2023-02-02T15:36:57.063Z,0.04
2023-02-02T15:39:27.723Z,0.04
2023-02-02T15:41:58.385Z,0.04
2023-02-02T15:44:28.472Z,0.05
2023-02-02T15:46:59.152Z,0.04
2023-02-02T15:49:34.299Z,0.04
2023-02-02T15:52:00.424Z,0.05
2023-02-02T15:54:31.124Z,0.05
2023-02-02T15:57:01.767Z,0.05
2023-02-02T15:59:31.922Z,0.04
2023-02-02T16:02:02.633Z,0.04
2023-02-02T16:04:33.203Z,0.04
2023-02-02T16:07:03.630Z,0.03
2023-02-02T16:09:34.277Z,0.04
2023-02-02T16:12:04.885Z,0.04
2023-02-02T16:14:35.318Z,0.04
2023-02-02T16:17:05.943Z,0.03
2023-02-02T16:19:36.607Z,0.04
2023-02-02T16:22:07.249Z,0.04
2023-02-02T16:24:37.909Z,0.04
2023-02-02T16:27:08.805Z,0.03
2023-02-02T16:29:39.201Z,0.04
2023-02-02T16:32:09.866Z,0.05
2023-02-02T16:34:40.485Z,0.07
2023-02-02T16:37:11.236Z,0.06
2023-02-02T16:39:42.109Z,0.07
2023-02-02T16:42:11.936Z,0.07
2023-02-02T16:44:42.466Z,0.08
2023-02-02T16:47:13.033Z,0.06
2023-02-02T16:49:43.881Z,0.06
2023-02-02T16:52:14.056Z,0.07
2023-02-02T16:54:44.738Z,0.07
2023-02-02T16:57:15.265Z,0.07
2023-02-02T16:59:46.016Z,0.09
2023-02-02T17:02:16.596Z,0.09
2023-02-02T17:04:47.172Z,0.09
2023-02-02T17:07:17.861Z,0.09
2023-02-02T17:09:48.567Z,0.09
2023-02-02T17:12:32.830Z,0.09
2023-02-02T17:14:50.946Z,0.09
2023-02-02T17:17:20.419Z,0.08
2023-02-02T17:19:51.015Z,0.09
2023-02-02T17:24:52.864Z,0.09
2023-02-02T17:27:22.617Z,0.09
2023-02-02T17:29:58.371Z,0.09
2023-02-02T17:32:23.763Z,0.09
2023-02-02T17:34:54.650Z,0.09
2023-02-02T17:37:25.232Z,0.09
2023-02-02T17:39:55.974Z,0.09
2023-02-02T17:42:26.654Z,0.09
2023-02-02T17:44:58.409Z,0.09
2023-02-02T17:47:27.692Z,0.09
2023-02-02T17:49:58.396Z,0.09
2023-02-02T17:52:29.011Z,0.09
2023-02-02T17:54:59.663Z,0.09
2023-02-02T17:57:30.293Z,0.09
2023-02-02T18:00:00.957Z,0.09
2023-02-02T18:02:33.051Z,0.09
2023-02-02T18:05:01.838Z,0.09
2023-02-02T18:07:32.173Z,0.09
2023-02-02T18:10:02.857Z,0.09
2023-02-02T18:12:33.477Z,0.09
2023-02-02T18:15:04.180Z,0.09
2023-02-02T18:17:34.887Z,0.09
2023-02-02T18:20:05.074Z,0.09
2023-02-02T18:22:35.706Z,0.09
2023-02-02T18:25:06.582Z,0.09
2023-02-02T18:27:37.013Z,0.09
2023-02-02T18:30:07.248Z,0.09
2023-02-02T18:32:37.912Z,0.09
2023-02-02T18:35:08.291Z,0.09
2023-02-02T18:37:38.583Z,0.09
2023-02-02T18:40:09.241Z,0.09
2023-02-02T18:42:39.734Z,0.09
2023-02-02T18:45:10.420Z,0.09
2023-02-02T18:47:41.504Z,0.09
2023-02-02T18:50:10.819Z,0.08
2023-02-02T18:52:41.394Z,0.09
2023-02-02T18:55:11.441Z,0.09
2023-02-02T18:57:42.040Z,0.09
2023-02-02T19:00:12.436Z,0.09
2023-02-02T19:02:42.762Z,0.09
2023-02-02T19:05:12.882Z,0.09
2023-02-02T19:07:42.764Z,0.09
2023-02-02T19:10:13.562Z,0.09
2023-02-02T19:12:43.504Z,0.09
2023-02-02T19:15:13.626Z,0.09
2023-02-02T19:17:43.960Z,0.09
2023-02-02T19:20:14.666Z,0.09
2023-02-02T19:22:45.001Z,0.1
2023-02-02T19:25:15.676Z,0.1
2023-02-02T19:27:48.200Z,0.09
2023-02-02T19:32:47.242Z,0.1
2023-02-02T19:35:17.305Z,0.09
2023-02-02T19:37:47.379Z,0.09
2023-02-02T19:45:28.391Z,0.09
2023-02-02T19:50:18.355Z,0.09
2023-02-02T19:52:48.416Z,0.1
2023-02-02T19:55:18.821Z,0.09
2023-02-02T19:57:49.448Z,0.09
2023-02-02T20:02:51.016Z,0.09
2023-02-02T20:05:20.746Z,0.09
2023-02-02T20:07:51.558Z,0.09
2023-02-02T20:10:21.241Z,0.09
2023-02-02T20:12:51.841Z,0.09
2023-02-02T20:15:22.893Z,0.09
2023-02-02T20:17:58.551Z,0.1
2023-02-02T20:22:53.811Z,0.09
2023-02-02T20:27:55.099Z,0.09
2023-02-02T20:30:26.091Z,0.09
2023-02-02T20:32:56.085Z,0.09
2023-02-02T20:35:26.130Z,0.09
2023-02-02T20:37:56.357Z,0.08
2023-02-02T20:40:26.971Z,0.09
2023-02-02T20:45:27.452Z,0.09
2023-02-02T20:47:57.497Z,0.09
2023-02-02T20:50:28.347Z,0.09
2023-02-02T20:55:33.736Z,0.09
2023-02-02T20:58:04.320Z,0.09
2023-02-02T21:00:29.398Z,0.09
2023-02-02T21:05:29.654Z,0.09
2023-02-02T21:08:05.233Z,0.09
2023-02-02T21:10:30.239Z,0.09
2023-02-02T21:13:00.531Z,0.09
2023-02-02T21:15:30.575Z,0.09
2023-02-02T21:18:00.668Z,0.09
2023-02-02T21:20:31.286Z,0.09
2023-02-02T21:23:01.659Z,0.09
2023-02-02T21:25:32.033Z,0.09
2023-02-02T21:28:02.299Z,0.09
2023-02-02T21:30:32.786Z,0.09
2023-02-02T21:33:03.335Z,0.09
2023-02-02T21:35:33.943Z,0.09
2023-02-02T21:38:03.969Z,0.09
2023-02-02T21:40:34.133Z,0.09
2023-02-02T21:43:04.123Z,0.09
2023-02-02T21:45:34.201Z,0.09
2023-02-02T21:48:04.266Z,0.09
2023-02-02T21:50:34.380Z,0.09
2023-02-02T21:53:04.839Z,0.09
2023-02-02T21:55:35.707Z,0.09
2023-02-02T21:58:06.381Z,0.09
2023-02-02T22:00:36.337Z,0.08
2023-02-02T22:03:07.034Z,0.08
2023-02-02T22:05:37.381Z,0.08
2023-02-02T22:08:07.413Z,0.08
2023-02-02T22:10:37.813Z,0.08
2023-02-02T22:13:08.061Z,0.08
2023-02-02T22:15:39.059Z,0.09
2023-02-02T22:18:08.496Z,0.08
2023-02-02T22:20:38.914Z,0.08
2023-02-02T22:23:09.490Z,0.09
2023-02-02T22:25:39.771Z,0.09
2023-02-02T22:28:09.885Z,0.09
2023-02-02T22:30:40.313Z,0.09
2023-02-02T22:33:10.360Z,0.09
2023-02-02T22:35:40.406Z,0.09
2023-02-02T22:38:11.067Z,0.09
2023-02-02T22:40:41.816Z,0.09
2023-02-02T22:43:12.045Z,0.09
2023-02-02T22:45:42.459Z,0.09
2023-02-02T22:48:12.483Z,0.08
2023-02-02T22:50:42.889Z,0.09
2023-02-02T22:53:13.340Z,0.09
2023-02-02T22:55:44.097Z,0.09
2023-02-02T22:58:14.405Z,0.09
2023-02-02T23:00:45.122Z,0.09
2023-02-02T23:03:15.640Z,0.09
2023-02-02T23:05:45.692Z,0.09
2023-02-02T23:08:16.265Z,0.09
2023-02-02T23:10:46.654Z,0.09
2023-02-02T23:13:17.135Z,0.09
2023-02-02T23:15:47.247Z,0.09
2023-02-02T23:18:17.362Z,0.09
2023-02-02T23:20:47.775Z,0.09
2023-02-02T23:23:19.459Z,0.09
2023-02-02T23:25:49.065Z,0.09
2023-02-02T23:28:19.245Z,0.09
2023-02-02T23:30:49.756Z,0.09
2023-02-02T23:33:20.239Z,0.1
2023-02-02T23:35:50.418Z,0.09
2023-02-02T23:38:21.017Z,0.09
2023-02-02T23:40:51.565Z,0.1
2023-02-02T23:43:21.447Z,0.09
2023-02-02T23:45:51.550Z,0.09
2023-02-02T23:48:21.557Z,0.09
2023-02-02T23:50:51.610Z,0.09
2023-02-02T23:53:22.202Z,0.1
2023-02-02T23:55:52.570Z,0.1
2023-02-02T23:58:23.130Z,0.09
